Latest Weather Observations for Curtin

IDW60801

Issued at 4:32 am WST Saturday 13 February 2016 (issued every 30 minutes, with the page automatically refreshed every 10 minutes)

About weather observations | Map of weather stations | Latest weather observations for WA | Other Formats
Station Details ID: 003080 Name: CURTIN AERO Lat: -17.58 Lon: 123.83 Height: 77.5 m
Data from the previous 72 hours. | See also: Recent months at Curtin
Date/Time
WST
Temp
°C
App
Temp
°C
Dew
Point
Rel
Hum
%
Delta-T
°C
Wind Press
QNH
hPa
Press
MSL
hPa
Rain
since 9 am
mm
Dir
 
Spd
km/h
Gust
km/h
Spd
kts
Gust
kts
13/04:30am 26.3 30.1 22.8 81 2.4 N 7 9 4 5 1009.0 1008.4 3.0
13/04:00am 26.4 29.8 22.7 80 2.5 NE 9 11 5 6 1008.7 1008.1 3.0
13/03:30am 26.4 30.0 23.1 82 2.2 NE 9 13 5 7 1008.8 1008.2 3.0
13/03:00am 26.3 29.9 23.0 82 2.2 NE 9 13 5 7 1008.6 1008.0 3.0
13/02:30am 26.4 29.6 23.1 82 2.2 NE 11 15 6 8 1008.3 1007.7 3.0
13/02:00am 26.7 30.3 23.8 84 2.0 NE 11 19 6 10 1008.3 1007.7 3.0
13/01:30am 27.0 31.4 24.5 86 1.7 NE 9 11 5 6 1007.9 1007.3 2.8
13/01:00am 27.3 31.8 24.0 82 2.3 NNW 7 9 4 5 1007.9 1007.3 2.8
13/12:30am 27.8 32.4 24.2 81 2.5 W 7 11 4 6 1007.6 1007.0 2.8
13/12:00am 27.7 32.0 24.3 82 2.4 W 9 11 5 6 1007.8 1007.2 2.8
 
Date/Time
WST
Temp
°C
App
Temp
°C
Dew
Point
Rel
Hum
%
Delta-T
°C
Wind Press
QNH
hPa
Press
MSL
hPa
Rain
since 9 am
mm
Dir
 
Spd
km/h
Gust
km/h
Spd
kts
Gust
kts
12/11:30pm 27.5 31.8 23.7 80 2.6 NNW 7 9 4 5 1008.3 1007.7 2.8
12/11:00pm 27.7 31.8 23.3 77 3.0 N 7 11 4 6 1008.6 1008.0 2.8
12/10:30pm 28.0 31.5 23.6 77 3.0 NNE 11 15 6 8 1008.7 1008.1 2.8
12/10:00pm 28.5 31.2 23.4 74 3.5 NNW 15 20 8 11 1008.2 1007.6 2.6
12/09:30pm 28.5 30.0 22.7 71 4.0 NW 19 28 10 15 1008.0 1007.4 2.6
12/09:00pm 28.7 29.9 22.2 68 4.4 WNW 19 24 10 13 1008.3 1007.7 2.6
12/08:30pm 28.7 29.5 22.4 68 4.3 SW 22 30 12 16 1008.9 1008.3 2.6
12/08:00pm 28.5 30.6 22.5 70 4.1 SE 15 19 8 10 1009.2 1008.6 2.6
12/07:30pm 28.2 30.7 21.7 68 4.4 NNW 11 13 6 7 1008.2 1007.6 2.4
12/07:00pm 28.6 29.5 21.6 66 4.7 NNE 19 28 10 15 1007.9 1007.3 2.4
12/06:30pm 28.3 31.1 21.6 67 4.5 NNE 9 15 5 8 1006.3 1005.7 2.2
12/06:00pm 28.9 31.8 21.1 62 5.2 N 7 11 4 6 1005.7 1005.1 2.2
12/05:30pm 29.3 30.8 20.5 59 5.8 NNW 13 17 7 9 1005.3 1004.7 2.0
12/05:00pm 28.4 29.6 21.4 66 4.7 NNW 17 20 9 11 1004.9 1004.3 1.8
12/04:30pm 26.3 29.0 21.3 74 3.3 NE 9 17 5 9 1006.7 1006.1 1.8
12/04:00pm 28.3 27.4 17.8 53 6.7 NNE 19 43 10 23 1007.9 1007.3 1.4
12/03:47pm 26.6 23.5 18.5 61 5.2 NW 32 50 17 27 1007.7 1007.1 1.4
12/03:38pm 26.5 23.1 18.1 60 5.3 NW 33 50 18 27 1005.5 1004.9 1.2
12/03:30pm 25.7 22.1 19.3 67 4.1 NNW 37 65 20 35 1004.9 1004.3 1.0
12/03:19pm 23.1 17.8 19.5 80 2.3 NW 46 78 25 42 1005.2 1004.6 0.8
12/03:10pm 25.4 24.4 21.3 78 2.7 NW 28 59 15 32 1005.9 1005.3 0.6
12/03:00pm 28.2 28.2 21.7 68 4.4 NE 24 41 13 22 1005.2 1004.6 0.2
12/02:52pm 33.3 32.7 19.7 44 9.0 NNW 22 39 12 21 1004.4 1003.8 0.0
12/02:30pm 37.5 41.6 23.9 45 9.6 NE 9 15 5 8 1003.5 1002.9 0.0
12/02:00pm 38.5 41.5 23.3 41 10.7 NE 13 20 7 11 1004.3 1003.7 0.0
12/01:30pm 38.0 41.9 23.6 43 10.1 N 9 15 5 8 1005.1 1004.5 0.0
12/01:00pm 38.5 41.4 22.5 39 11.2 W 11 32 6 17 1005.5 1004.9 0.0
12/12:30pm 39.4 43.4 23.7 40 11.1 N 9 15 5 8 1006.0 1005.4 0.0
12/12:00pm 37.4 41.5 24.5 47 9.2 NW 11 19 6 10 1006.4 1005.8 0.0
12/11:30am 37.4 41.1 24.5 47 9.2 N 13 19 7 10 1006.9 1006.3 0.0
12/11:00am 35.5 39.5 24.4 52 7.9 NNW 11 22 6 12 1007.3 1006.7 0.0
12/10:30am 35.7 40.2 24.6 52 7.9 NNE 9 17 5 9 1007.7 1007.1 0.0
12/10:00am 34.8 39.7 25.3 57 6.8 N 9 13 5 7 1008.0 1007.4 0.0
12/09:30am 33.2 37.9 25.5 64 5.5 N 11 19 6 10 1008.3 1007.7 0.0
12/09:00am 32.4 36.5 25.2 66 5.1 NNW 13 17 7 9 1008.6 1008.0 0.0
12/08:30am 31.4 36.5 26.2 74 3.7 NNW 11 19 6 10 1008.8 1008.2 0.0
12/08:13am 30.5 35.3 26.2 78 3.1 NNW 13 19 7 10 1008.7 1008.1 0.0
12/08:00am 29.9 34.6 26.1 80 2.7 NW 13 19 7 10 1008.7 1008.1 0.0
12/07:30am 29.4 35.3 26.8 86 1.9 NW 9 13 5 7 1008.7 1008.1 0.0
12/07:02am 28.7 34.6 27.3 92 1.0 W 11 15 6 8 1008.4 1007.8 0.0
12/07:00am 28.8 34.9 27.6 93 0.9 W 11 15 6 8 1008.4 1007.8 0.0
12/06:39am 27.1 34.7 26.8 98 0.2 CALM 0 0 0 0 1008.1 1007.5 0.0
12/06:30am 26.7 34.3 26.7 100 0.0 CALM 0 0 0 0 1007.9 1007.3 0.0
12/06:04am 26.0 33.1 26.0 100 0.0 CALM 0 4 0 2 1007.6 1007.0 0.0
12/06:00am 26.0 32.7 26.0 100 0.0 NNW 2 6 1 3 1007.5 1006.9 0.0
12/05:30am 26.0 31.8 25.8 99 0.1 N 6 7 3 4 1007.1 1006.5 0.0
12/05:00am 26.1 31.9 26.1 100 0.0 NNW 7 9 4 5 1006.8 1006.2 0.0
12/04:40am 26.2 31.7 26.2 100 0.0 N 9 15 5 8 1006.5 1005.9 0.0
12/04:30am 26.5 31.8 26.5 100 0.0 NW 11 15 6 8 1006.4 1005.8 0.0
12/04:27am 26.4 31.5 26.2 99 0.1 NNW 11 15 6 8 1006.3 1005.7 0.0
12/04:00am 25.4 29.8 24.5 95 0.6 N 9 13 5 7 1006.3 1005.7 0.0
12/03:30am 26.2 31.6 25.2 94 0.7 NW 6 9 3 5 1006.0 1005.4 0.0
12/03:00am 26.9 32.5 25.7 93 0.8 NNW 7 11 4 6 1006.0 1005.4 0.0
12/02:30am 27.0 32.5 25.6 92 1.0 W 7 11 4 6 1005.8 1005.2 0.0
12/02:00am 27.3 33.2 26.2 94 0.8 N 7 11 4 6 1006.1 1005.5 0.0
12/01:30am 27.6 33.3 25.6 89 1.4 W 6 9 3 5 1006.2 1005.6 0.0
12/01:00am 28.4 33.9 25.6 85 2.0 W 7 9 4 5 1006.4 1005.8 0.0
12/12:30am 29.3 35.4 27.1 88 1.6 SW 9 13 5 7 1006.5 1005.9 0.0
12/12:00am 28.3 33.9 25.5 85 2.0 WNW 6 11 3 6 1006.7 1006.1 0.0
 
Date/Time
WST
Temp
°C
App
Temp
°C
Dew
Point
Rel
Hum
%
Delta-T
°C
Wind Press
QNH
hPa
Press
MSL
hPa
Rain
since 9 am
mm
Dir
 
Spd
km/h
Gust
km/h
Spd
kts
Gust
kts
11/11:30pm 29.2 34.9 27.0 88 1.6 W 11 15 6 8 1006.8 1006.2 0.0
11/11:00pm 27.8 33.4 25.8 89 1.4 WSW 7 9 4 5 1007.2 1006.6 0.0
11/10:30pm 27.2 32.0 24.5 85 1.9 NNE 7 9 4 5 1007.1 1006.5 0.0
11/10:00pm 27.5 31.6 23.3 78 2.9 N 7 9 4 5 1007.0 1006.4 0.0
11/09:30pm 27.7 31.0 22.6 74 3.5 N 9 11 5 6 1006.7 1006.1 0.0
11/09:00pm 29.3 33.4 24.0 73 3.7 NNW 9 11 5 6 1006.5 1005.9 0.0
11/08:30pm 29.5 32.9 22.0 64 5.1 N 7 9 4 5 1006.1 1005.5 0.0
11/08:00pm 31.8 35.4 23.1 60 6.0 WNW 9 13 5 7 1005.6 1005.0 0.0
11/07:30pm 32.8 34.8 20.7 49 8.1 WNW 11 15 6 8 1005.4 1004.8 0.0
11/07:00pm 31.2 33.8 20.5 53 7.1 WNW 7 9 4 5 1004.8 1004.2 0.0
11/06:30pm 32.9 35.3 19.7 45 8.7 NNW 6 7 3 4 1004.5 1003.9 0.0
11/06:00pm 35.9 37.6 18.0 34 11.7 NNW 6 9 3 5 1004.3 1003.7 0.0
11/05:30pm 36.7 37.3 17.8 32 12.3 N 11 17 6 9 1004.2 1003.6 0.0
11/05:00pm 36.9 37.4 18.4 33 12.2 N 13 19 7 10 1003.6 1003.0 0.0
11/04:30pm 36.1 37.5 21.1 41 10.2 N 15 20 8 11 1003.7 1003.1 0.0
11/04:13pm 35.4 35.9 20.9 42 9.8 N 19 28 10 15 1003.6 1003.0 0.0
11/04:00pm 40.4 36.8 9.7 16 18.2 SSE 19 28 10 15 1003.4 1002.8 0.0
11/03:30pm 40.0 39.4 15.6 24 15.6 SSE 13 24 7 13 1003.2 1002.6 0.0
11/03:00pm 39.5 39.8 17.0 26 14.7 NE 11 17 6 9 1003.5 1002.9 0.0
11/02:30pm 40.7 41.3 16.8 24 15.6 SE 9 20 5 11 1003.6 1003.0 0.0
11/02:00pm 40.0 42.9 20.7 33 13.2 SE 6 9 3 5 1004.0 1003.4 0.0
11/01:30pm 39.7 41.8 20.9 33 12.9 N 11 17 6 9 1004.3 1003.7 0.0
11/01:00pm 39.6 42.1 21.7 35 12.4 E 11 17 6 9 1004.7 1004.1 0.0
11/12:30pm 38.4 41.6 21.6 38 11.6 SSW 7 11 4 6 1005.3 1004.7 0.0
11/12:00pm 38.1 42.9 24.4 45 9.8 SE 7 11 4 6 1005.6 1005.0 0.0
11/11:30am 36.5 41.1 24.7 50 8.4 WSW 9 13 5 7 1006.2 1005.6 0.0
11/11:00am 35.4 40.3 25.3 56 7.2 NW 9 15 5 8 1006.5 1005.9 0.0
11/10:30am 34.1 38.6 25.2 59 6.3 N 11 19 6 10 1006.9 1006.3 0.0
11/10:00am 33.0 37.3 25.5 64 5.4 NW 13 17 7 9 1007.1 1006.5 0.0
11/09:30am 32.2 36.4 24.8 65 5.2 W 11 17 6 9 1007.4 1006.8 0.0
11/09:00am 31.5 35.5 25.6 71 4.2 WNW 15 22 8 12 1007.6 1007.0 0.0
11/08:30am 30.7 35.6 26.4 78 3.1 NNW 13 20 7 11 1007.7 1007.1 0.0
11/08:00am 30.3 34.3 26.2 79 2.9 NW 17 24 9 13 1007.3 1006.7 0.0
11/07:30am 29.5 34.1 26.5 84 2.1 WNW 15 20 8 11 1007.4 1006.8 0.0
11/07:00am 27.9 33.8 26.7 93 0.9 NW 9 13 5 7 1007.4 1006.8 0.0
11/06:30am 27.0 32.6 26.3 96 0.5 NW 9 13 5 7 1007.1 1006.5 0.0
11/06:00am 26.3 32.1 25.8 97 0.4 NNW 6 9 3 5 1007.2 1006.6 0.0
11/05:30am 26.4 32.0 25.7 96 0.5 NNW 7 11 4 6 1007.0 1006.4 0.0
11/05:00am 26.5 31.8 25.3 93 0.8 NNW 7 13 4 7 1006.9 1006.3 0.0
11/04:30am 26.6 31.7 25.0 91 1.1 N 7 9 4 5 1006.6 1006.0 0.0
11/04:00am 27.0 31.6 24.8 88 1.5 NNE 9 11 5 6 1006.6 1006.0 0.0
11/03:30am 27.8 32.2 25.0 85 2.0 WSW 11 15 6 8 1006.1 1005.5 0.0
11/03:00am 28.5 31.4 25.1 82 2.4 WSW 19 24 10 13 1005.8 1005.2 0.0
11/02:30am 28.7 31.7 24.7 79 2.8 WSW 17 22 9 12 1005.8 1005.2 0.0
11/02:00am 28.9 33.3 25.1 80 2.7 WSW 11 15 6 8 1005.9 1005.3 0.0
11/01:30am 29.0 33.2 25.4 81 2.5 WSW 13 17 7 9 1005.8 1005.2 0.0
11/01:00am 28.1 33.7 25.5 86 1.8 NNW 6 7 3 4 1006.1 1005.5 0.0
11/12:30am 28.5 35.3 25.5 84 2.1 CALM 0 0 0 0 1006.3 1005.7 0.0
11/12:00am 29.0 34.5 25.6 82 2.4 N 7 11 4 6 1006.5 1005.9 0.0
 
Date/Time
WST
Temp
°C
App
Temp
°C
Dew
Point
Rel
Hum
%
Delta-T
°C
Wind Press
QNH
hPa
Press
MSL
hPa
Rain
since 9 am
mm
Dir
 
Spd
km/h
Gust
km/h
Spd
kts
Gust
kts
10/11:30pm 29.0 34.1 25.6 82 2.4 N 9 11 5 6 1006.6 1006.0 0.0
10/11:00pm 28.8 34.2 25.4 82 2.4 N 7 9 4 5 1006.6 1006.0 0.0
10/10:30pm 28.8 33.8 25.4 82 2.4 N 9 11 5 6 1006.7 1006.1 0.0
10/10:00pm 28.5 33.2 24.9 81 2.5 N 9 11 5 6 1006.7 1006.1 0.0
10/09:30pm 28.9 33.7 25.1 80 2.7 N 9 11 5 6 1006.4 1005.8 0.0
10/09:00pm 28.4 32.6 23.1 73 3.6 N 6 7 3 4 1006.5 1005.9 0.0
10/08:30pm 28.9 32.8 22.9 70 4.1 NE 7 9 4 5 1006.4 1005.8 0.0
10/08:00pm 30.3 34.3 22.7 64 5.2 NW 6 7 3 4 1005.9 1005.3 0.0
10/07:30pm 31.6 35.1 22.9 60 6.0 NNW 9 11 5 6 1005.5 1004.9 0.0
10/07:00pm 32.7 35.8 22.2 54 7.2 NNW 9 13 5 7 1005.2 1004.6 0.0
10/06:30pm 33.2 34.9 22.3 52 7.5 NW 17 26 9 14 1004.9 1004.3 0.0
10/06:00pm 35.8 37.1 18.4 35 11.4 WNW 9 13 5 7 1004.3 1003.7 0.0
10/05:30pm 36.8 37.3 18.4 34 12.1 NW 13 20 7 11 1003.9 1003.3 0.0
10/05:00pm 37.1 38.3 20.0 37 11.5 NNW 13 17 7 9 1004.0 1003.4 0.0
10/04:30pm 37.1 38.2 20.4 37 11.3 NNW 15 22 8 12 1004.0 1003.4 0.0
10/04:00pm 36.3 36.1 19.3 37 11.3 N 19 28 10 15 1004.0 1003.4 0.0
10/03:30pm 40.2 36.8 11.3 18 17.4 SE 20 30 11 16 1003.9 1003.3 0.0
10/03:00pm 41.2 37.8 11.3 17 18.2 SE 20 32 11 17 1003.7 1003.1 0.0
10/02:30pm 41.3 38.2 12.2 18 17.9 SSE 20 33 11 18 1003.9 1003.3 0.0
10/02:00pm 40.9 39.2 15.7 23 16.2 ESE 19 32 10 17 1004.2 1003.6 0.0
10/01:30pm 40.6 40.3 15.4 22 16.1 ESE 11 22 6 12 1004.6 1004.0 0.0
10/01:00pm 40.4 40.2 16.6 25 15.5 S 13 24 7 13 1005.0 1004.4 0.0
10/12:30pm 39.6 40.8 19.8 31 13.4 SE 13 20 7 11 1005.5 1004.9 0.0
10/12:00pm 39.0 41.2 20.3 34 12.7 SE 9 13 5 7 1005.9 1005.3 0.0
10/11:30am 37.9 40.3 21.5 38 11.3 W 11 17 6 9 1006.3 1005.7 0.0
10/11:00am 37.2 40.9 23.3 45 9.8 SW 9 19 5 10 1006.8 1006.2 0.0
10/10:30am 36.5 40.7 23.4 47 9.2 SW 7 13 4 7 1007.3 1006.7 0.0
10/10:00am 35.1 38.7 22.4 47 8.8 SSW 7 15 4 8 1007.6 1007.0 0.0
10/09:30am 34.6 38.9 23.3 52 7.9 NNW 6 9 3 5 1007.8 1007.2 0.0
10/09:00am 33.4 37.8 23.4 55 7.0 WSW 6 9 3 5 1008.0 1007.4 0.0
10/08:30am 32.3 36.1 23.5 59 6.1 WSW 9 15 5 8 1008.2 1007.6 0.0
10/08:00am 31.6 35.9 24.2 65 5.2 WSW 9 13 5 7 1008.2 1007.6 0.0
10/07:30am 30.8 34.7 24.9 71 4.2 W 13 17 7 9 1008.1 1007.5 0.0
10/07:00am 29.6 34.3 25.6 79 2.8 NW 11 13 6 7 1007.9 1007.3 0.0
10/06:30am 28.2 34.3 27.1 94 0.8 NNW 9 15 5 8 1007.6 1007.0 0.0
10/06:00am 27.1 33.4 26.8 98 0.2 NW 7 9 4 5 1007.7 1007.1 0.0
10/05:30am 27.4 34.9 27.1 98 0.2 WNW 2 7 1 4 1007.6 1007.0 0.0
10/05:00am 27.3 33.8 27.1 99 0.1 NNW 7 9 4 5 1007.3 1006.7 0.0

Other Formats:

Comma delimited format used in spreadsheet applications
http://www.bom.gov.au/fwo/IDW60801/IDW60801.94204.axf

JavaScript Object Notation format (JSON) in row-major order
http://www.bom.gov.au/fwo/IDW60801/IDW60801.94204.json